Home > Products > Valid Products > TAF

000
FTUS43 KOAX 090534
TAFOFK
TAF
KOFK 090534Z 0906/1006 33015KT P6SM BKN120 WS020/34040KT
     FM091200 33015KT P6SM BKN120
     FM091900 33013KT P6SM BKN120
     FM092100 33010KT P6SM OVC100=



000
FTUS43 KOAX 090534
TAFLNK
TAF
KLNK 090534Z 0906/1006 33014KT P6SM BKN250 WS020/34039KT
     FM091300 34015G20KT P6SM BKN250
     FM092100 33014KT P6SM BKN150
     FM100000 33004KT P6SM OVC100=



000
FTUS43 KOAX 090534
TAFOMA
TAF
KOMA 090534Z 0906/1006 33014KT P6SM BKN250 WS020/34038KT
      TEMPO 0906/0910 33015G24KT
     FM091000 34014G20KT P6SM SCT015 BKN150
      TEMPO 0910/0913 34014KT P6SM BKN015
     FM092000 32013KT P6SM BKN150
     FM100000 33008KT P6SM BKN250=



000
FTUS43 KOAX 090314 AAA
TAFLNK
TAF AMD
KLNK 090314Z 0903/0924 33014KT P6SM BKN250 WS020/34040KT
     FM091400 34012KT P6SM BKN250
     FM092200 33014KT P6SM BKN150=



000
FTUS43 KOAX 090310 AAA
TAFOMA
TAF AMD
KOMA 090310Z 0903/0924 33011KT P6SM BKN250 WS020/33039KT
      TEMPO 0903/0906 33014KT
     FM090600 34014G20KT P6SM SCT015 SCT250
      TEMPO 0907/0911 BKN015
     FM092300 33014KT P6SM BKN150=



000
FTUS43 KOAX 082320
TAFLNK
TAF
KLNK 082320Z 0900/0924 34015G22KT P6SM BKN250
     FM092200 33014KT P6SM BKN150=



000
FTUS43 KOAX 082320
TAFOMA
TAF
KOMA 082320Z 0900/0924 33017G25KT P6SM SCT015 SCT250
      TEMPO 0907/0911 BKN015
     FM092300 33014KT P6SM BKN150=



000
FTUS43 KOAX 082320
TAFOFK
TAF
KOFK 082320Z 0900/0924 33017G24KT P6SM BKN150
     FM092000 34013KT P6SM BKN120=



000
FTUS43 KOAX 082148 AAC
TAFOMA
TAF AMD
KOMA 082148Z 0822/0918 33023G32KT P6SM SCT035
     FM082300 33020G30KT P6SM SCT030 SCT250
     FM090100 33015G25KT P6SM SCT015 BKN200
      TEMPO 0903/0907 BKN015
     FM090900 33014KT P6SM SCT250=



000
FTUS43 KOAX 082133 AAB
TAFOMA
TAF AMD
KOMA 082133Z 0822/0918 33023G32KT P6SM BKN035
      TEMPO 0822/0823 SCT035
     FM082300 33020G30KT P6SM SCT030 SCT250
     FM090100 33017G26KT P6SM SCT015 BKN200
      TEMPO 0903/0907 BKN015
     FM090900 33014G22KT P6SM SCT250=



000
FTUS43 KOAX 082017 AAA
TAFOMA
TAF AMD
KOMA 082017Z 0820/0918 33024G35KT P6SM BKN035
      TEMPO 0821/0823 SCT035
     FM082300 33022G32KT P6SM SCT030 SCT250
     FM090100 33018G26KT P6SM FEW025 BKN200
     FM091000 33014G22KT P6SM SCT250=



000
FTUS43 KOAX 082017 AAA
TAFOMA
TAF AMD
KOMA 082017Z 0820/0918 33024G35KT P6SM BKN035
      TEMPO 0821/0823 SCT035
     FM082300 33022G32KT P6SM SCT030 SCT250
     FM090100 33018G26KT P6SM FEW025 BKN200
     FM091000 33014G22KT P6SM SCT250=



000
FTUS43 KOAX 082017 AAA
TAFOMA
TAF AMD
KOMA 082017Z 0820/0918 33024G35KT P6SM BKN035
      TEMPO 0821/0823 SCT035
     FM082300 33022G32KT P6SM SCT030 SCT250
     FM090100 33018G26KT P6SM FEW025 BKN200
     FM091000 33014G22KT P6SM SCT250=



000
FTUS43 KOAX 082015 AAB
TAFLNK
TAF AMD
KLNK 082015Z 0820/0918 33024G34KT P6SM SCT030 SCT250
     FM082200 34022G32KT P6SM SCT035 BKN200
     FM090000 34015G23KT P6SM FEW030 BKN150
     FM090900 34014KT P6SM SCT250=



000
FTUS43 KOAX 082015 AAB
TAFLNK
TAF AMD
KLNK 082015Z 0820/0918 33024G34KT P6SM SCT030 SCT250
     FM082200 34022G32KT P6SM SCT035 BKN200
     FM090000 34015G23KT P6SM FEW030 BKN150
     FM090900 34014KT P6SM SCT250=



000
FTUS43 KOAX 081846 AAA
TAFLNK
TAF AMD
KLNK 081846Z 0819/0918 33028G38KT P6SM BKN035
      TEMPO 0820/0822 SCT035
     FM082200 34022G32KT P6SM SCT035 BKN200
     FM090000 34015G23KT P6SM FEW030 BKN150
     FM090900 34014KT P6SM SCT250=



000
FTUS43 KOAX 081846 AAA
TAFLNK
TAF AMD
KLNK 081846Z 0819/0918 33028G38KT P6SM BKN035
      TEMPO 0820/0822 SCT035
     FM082200 34022G32KT P6SM SCT035 BKN200
     FM090000 34015G23KT P6SM FEW030 BKN150
     FM090900 34014KT P6SM SCT250=



000
FTUS43 KOAX 081846 AAA
TAFLNK
TAF AMD
KLNK 081846Z 0819/0918 33028G38KT P6SM BKN035
      TEMPO 0820/0822 SCT035
     FM082200 34022G32KT P6SM SCT035 BKN200
     FM090000 34015G23KT P6SM FEW030 BKN150
     FM090900 34014KT P6SM SCT250=



000
FTUS43 KOAX 081845 AAA
TAFOFK
TAF AMD
KOFK 081845Z 0819/0918 32027G37KT P6SM SCT035
     FM082200 33023G32KT P6SM SCT035 BKN200
     FM090200 33016G24KT P6SM BKN150
     FM091000 33014G21KT P6SM SCT100 SCT250=



000
FTUS43 KOAX 081845 AAA
TAFOFK
TAF AMD
KOFK 081845Z 0819/0918 32027G37KT P6SM SCT035
     FM082200 33023G32KT P6SM SCT035 BKN200
     FM090200 33016G24KT P6SM BKN150
     FM091000 33014G21KT P6SM SCT100 SCT250=



000
FTUS43 KOAX 081845 AAA
TAFOFK
TAF AMD
KOFK 081845Z 0819/0918 32027G37KT P6SM SCT035
     FM082200 33023G32KT P6SM SCT035 BKN200
     FM090200 33016G24KT P6SM BKN150
     FM091000 33014G21KT P6SM SCT100 SCT250=



000
FTUS43 KOAX 081720
TAFOFK
TAF
KOFK 081720Z 0818/0918 32027G37KT P6SM SCT025 BKN040
      TEMPO 0818/0821 BKN025
     FM082200 33023G32KT P6SM SCT030 BKN200
     FM090200 33016G24KT P6SM BKN150
     FM091000 33014G21KT P6SM SCT100 SCT250=



000
FTUS43 KOAX 081720
TAFOMA
TAF
KOMA 081720Z 0818/0918 33024G35KT P6SM SCT025 OVC035
      TEMPO 0818/0821 6SM -SN OVC025
     FM082200 33024G32KT P6SM SCT025 BKN200
     FM090100 33018G26KT P6SM FEW025 BKN200
     FM091000 33014G22KT P6SM SCT250=



000
FTUS43 KOAX 081720
TAFLNK
TAF
KLNK 081720Z 0818/0918 33028G38KT P6SM BKN040
      TEMPO 0818/0821 -SN BKN030
     FM082200 34022G32KT P6SM SCT030 BKN200
     FM090000 34015G23KT P6SM SCT025 BKN150
     FM090900 34014KT P6SM SCT250=



000
FTUS43 KOAX 081645 AAA
TAFOFK
TAF AMD
KOFK 081645Z 0817/0912 32027G37KT P6SM SCT025 BKN040
      TEMPO 0817/0821 BKN025
     FM082300 33018G25KT P6SM SCT025 BKN120
     FM090600 33014G21KT P6SM SCT015 SCT250=



000
FTUS43 KOAX 081645 AAA
TAFOFK
TAF AMD
KOFK 081645Z 0817/0912 32027G37KT P6SM SCT025 BKN040
      TEMPO 0817/0821 BKN025
     FM082300 33018G25KT P6SM SCT025 BKN120
     FM090600 33014G21KT P6SM SCT015 SCT250=



000
FTUS43 KOAX 081645 AAA
TAFOFK
TAF AMD
KOFK 081645Z 0817/0912 32027G37KT P6SM SCT025 BKN040
      TEMPO 0817/0821 BKN025
     FM082300 33018G25KT P6SM SCT025 BKN120
     FM090600 33014G21KT P6SM SCT015 SCT250=



000
FTUS43 KOAX 081422 AAA
TAFOMA
TAF AMD
KOMA 081422Z 0814/0912 33024G38KT P6SM SCT025 OVC035
      TEMPO 0814/0817 6SM -SN OVC025
     FM081800 33026G38KT P6SM SCT025 OVC040
     FM082100 33020G30KT P6SM SCT025 OVC040
     FM090500 33014KT P6SM SCT040=



000
FTUS43 KOAX 081422 AAA
TAFOMA
TAF AMD
KOMA 081422Z 0814/0912 33024G38KT P6SM SCT025 OVC035
      TEMPO 0814/0817 6SM -SN OVC025
     FM081800 33026G38KT P6SM SCT025 OVC040
     FM082100 33020G30KT P6SM SCT025 OVC040
     FM090500 33014KT P6SM SCT040=



000
FTUS43 KOAX 081422 AAA
TAFOMA
TAF AMD
KOMA 081422Z 0814/0912 33024G38KT P6SM SCT025 OVC035
      TEMPO 0814/0817 6SM -SN OVC025
     FM081800 33026G38KT P6SM SCT025 OVC040
     FM082100 33020G30KT P6SM SCT025 OVC040
     FM090500 33014KT P6SM SCT040=



000
FTUS43 KOAX 081418 AAA
TAFLNK
TAF AMD
KLNK 081418Z 0814/0912 33024G35KT P6SM OVC040
      TEMPO 0814/0817 5SM -SN OVC025
     FM081700 33028G38KT P6SM SCT030 BKN050
      TEMPO 0817/0820 BKN030
     FM090000 34015G25KT P6SM SCT025 BKN120
     FM090700 34014KT P6SM SKC=



000
FTUS43 KOAX 081120
TAFOMA
TAF
KOMA 081120Z 0812/0912 33022G32KT P6SM OVC025
      TEMPO 0812/0816 6SM -SN SCT025 OVC040
     FM082100 33020G30KT P6SM SCT025 OVC040
     FM090500 33014KT P6SM SCT040=



000
FTUS43 KOAX 081120
TAFLNK
TAF
KLNK 081120Z 0812/0912 33020G30KT P6SM BKN050
      TEMPO 0812/0816 6SM -SN OVC025
     FM081600 33028G38KT P6SM BKN050
     FM090000 34015G25KT P6SM SCT250
     FM090700 34014KT P6SM SKC=



000
FTUS43 KOAX 081120
TAFOFK
TAF
KOFK 081120Z 0812/0912 32027G37KT P6SM OVC040
     FM082300 33018G25KT P6SM SCT250
     FM090600 33014KT P6SM SCT250=



000
FTUS43 KOAX 081120
TAFOMA
TAF
KOMA 081120Z 0812/0912 33022G32KT P6SM OVC025
      TEMPO 0812/0816 6SM -SN SCT025 OVC040
     FM082100 33020G30KT P6SM SCT025 OVC040
     FM090500 33014KT P6SM SCT040=



000
FTUS43 KOAX 081120
TAFLNK
TAF
KLNK 081120Z 0812/0912 33020G30KT P6SM BKN050
      TEMPO 0812/0816 6SM -SN OVC025
     FM081600 33028G38KT P6SM BKN050
     FM090000 34015G25KT P6SM SCT250
     FM090700 34014KT P6SM SKC=



000
FTUS43 KOAX 081120
TAFLNK
TAF
KLNK 081120Z 0812/0912 33020G30KT P6SM BKN050
      TEMPO 0812/0816 6SM -SN OVC025
     FM081600 33028G38KT P6SM BKN050
     FM090000 34015G25KT P6SM SCT250
     FM090700 34014KT P6SM SKC=



000
FTUS43 KOAX 081120
TAFOMA
TAF
KOMA 081120Z 0812/0912 33022G32KT P6SM OVC025
      TEMPO 0812/0816 6SM -SN SCT025 OVC040
     FM082100 33020G30KT P6SM SCT025 OVC040
     FM090500 33014KT P6SM SCT040=



000
FTUS43 KOAX 081120
TAFOFK
TAF
KOFK 081120Z 0812/0912 32027G37KT P6SM OVC040
     FM082300 33018G25KT P6SM SCT250
     FM090600 33014KT P6SM SCT250=



000
FTUS43 KOAX 081120
TAFOFK
TAF
KOFK 081120Z 0812/0912 32027G37KT P6SM OVC040
     FM082300 33018G25KT P6SM SCT250
     FM090600 33014KT P6SM SCT250=



000
FTUS43 KOAX 081017 AAA
TAFOMA
TAF AMD
KOMA 081017Z 0810/0906 33020G30KT P6SM OVC040
      TEMPO 0810/0814 4SM -SN OVC025
     FM081500 33028G38KT P6SM OVC025
     FM090000 33020G30KT P6SM BKN050=



000
FTUS43 KOAX 081017 AAA
TAFLNK
TAF AMD
KLNK 081017Z 0810/0906 33020G30KT P6SM BKN050
      TEMPO 0810/0814 6SM -SN OVC025
     FM081600 33028G38KT P6SM BKN050
     FM090000 34015G25KT P6SM SCT250=



000
FTUS43 KOAX 080538
TAFOMA
TAF
KOMA 080538Z 0806/0906 33022G32KT P6SM OVC040
      TEMPO 0806/0808 4SM -SN OVC025
     FM081500 33028G38KT P6SM OVC025
     FM090000 33020G30KT P6SM BKN050=



000
FTUS43 KOAX 080538
TAFOFK
TAF
KOFK 080538Z 0806/0906 32030G40KT P6SM OVC040
      TEMPO 0809/0812 6SM -SN OVC025
     FM082300 34020G30KT P6SM SCT250=



000
FTUS43 KOAX 080538
TAFLNK
TAF
KLNK 080538Z 0806/0906 33020G30KT P6SM BKN050
     FM081600 33028G38KT P6SM BKN050
     FM090000 34015G25KT P6SM SCT250=



000
FTUS43 KOAX 080538
TAFLNK
TAF
KLNK 080538Z 0806/0906 33020G30KT P6SM BKN050
     FM081600 33028G38KT P6SM BKN050
     FM090000 34015G25KT P6SM SCT250=



000
FTUS43 KOAX 080538
TAFOMA
TAF
KOMA 080538Z 0806/0906 33022G32KT P6SM OVC040
      TEMPO 0806/0808 4SM -SN OVC025
     FM081500 33028G38KT P6SM OVC025
     FM090000 33020G30KT P6SM BKN050=



000
FTUS43 KOAX 080538
TAFOFK
TAF
KOFK 080538Z 0806/0906 32030G40KT P6SM OVC040
      TEMPO 0809/0812 6SM -SN OVC025
     FM082300 34020G30KT P6SM SCT250=



000
FTUS43 KOAX 080538
TAFLNK
TAF
KLNK 080538Z 0806/0906 33020G30KT P6SM BKN050
     FM081600 33028G38KT P6SM BKN050
     FM090000 34015G25KT P6SM SCT250=



000
FTUS43 KOAX 080538
TAFOFK
TAF
KOFK 080538Z 0806/0906 32030G40KT P6SM OVC040
      TEMPO 0809/0812 6SM -SN OVC025
     FM082300 34020G30KT P6SM SCT250=



000
FTUS43 KOAX 080538
TAFOMA
TAF
KOMA 080538Z 0806/0906 33022G32KT P6SM OVC040
      TEMPO 0806/0808 4SM -SN OVC025
     FM081500 33028G38KT P6SM OVC025
     FM090000 33020G30KT P6SM BKN050=



000
FTUS43 KOAX 080333 AAA
TAFOMA
TAF AMD
KOMA 080333Z 0804/0824 33022G33KT 2SM -SN OVC018
     FM080500 33032G33KT P6SM -SN OVC035
     FM081000 33030G40KT P6SM OVC025
     FM081900 33025G35KT P6SM BKN040=



000
FTUS43 KOAX 072339
TAFOFK
TAF
KOFK 072339Z 0800/0824 32022G32KT P6SM -SN OVC050
      TEMPO 0800/0803 4SM -SN OVC030
     FM080800 32030G40KT P6SM OVC025
     FM081900 34025G35KT P6SM SKC=



000
FTUS43 KOAX 072339
TAFLNK
TAF
KLNK 072339Z 0800/0824 33022G32KT P6SM OVC050
      TEMPO 0800/0803 5SM -SN OVC030
     FM081000 33030G40KT P6SM OVC025
     FM081900 33025G35KT P6SM BKN040=



000
FTUS43 KOAX 072339
TAFLNK
TAF
KLNK 072339Z 0800/0824 33022G32KT P6SM OVC050
      TEMPO 0800/0803 5SM -SN OVC030
     FM081000 33030G40KT P6SM OVC025
     FM081900 33025G35KT P6SM BKN040=



000
FTUS43 KOAX 072339
TAFOFK
TAF
KOFK 072339Z 0800/0824 32022G32KT P6SM -SN OVC050
      TEMPO 0800/0803 4SM -SN OVC030
     FM080800 32030G40KT P6SM OVC025
     FM081900 34025G35KT P6SM SKC=



000
FTUS43 KOAX 072339
TAFLNK
TAF
KLNK 072339Z 0800/0824 33022G32KT P6SM OVC050
      TEMPO 0800/0803 5SM -SN OVC030
     FM081000 33030G40KT P6SM OVC025
     FM081900 33025G35KT P6SM BKN040=



000
FTUS43 KOAX 072339
TAFOMA
TAF
KOMA 072339Z 0800/0824 33022G32KT P6SM -SN OVC040
      TEMPO 0800/0803 4SM -SN OVC030
     FM081000 33030G40KT P6SM OVC025
     FM081900 33025G35KT P6SM BKN040=



000
FTUS43 KOAX 072339
TAFOFK
TAF
KOFK 072339Z 0800/0824 32022G32KT P6SM -SN OVC050
      TEMPO 0800/0803 4SM -SN OVC030
     FM080800 32030G40KT P6SM OVC025
     FM081900 34025G35KT P6SM SKC=



000
FTUS43 KOAX 072339
TAFOMA
TAF
KOMA 072339Z 0800/0824 33022G32KT P6SM -SN OVC040
      TEMPO 0800/0803 4SM -SN OVC030
     FM081000 33030G40KT P6SM OVC025
     FM081900 33025G35KT P6SM BKN040=



000
FTUS43 KOAX 072339
TAFOMA
TAF
KOMA 072339Z 0800/0824 33022G32KT P6SM -SN OVC040
      TEMPO 0800/0803 4SM -SN OVC030
     FM081000 33030G40KT P6SM OVC025
     FM081900 33025G35KT P6SM BKN040=



000
FTUS43 KOAX 072131 AAC
TAFOFK
TAF AMD
KOFK 072131Z 0722/0818 31028G40KT P6SM BKN030
      TEMPO 0722/0724 4SM -SN
     FM080300 33030G40KT P6SM BKN025=



000
FTUS43 KOAX 072129 AAB
TAFOFK
TAF AMD
KOFK 072129Z 0721/0818 31028G40KT P6SM BKN030
     FM080300 33030G40KT P6SM BKN025=



000
FTUS43 KOAX 072129 AAB
TAFOFK
TAF AMD
KOFK 072129Z 0721/0818 31028G40KT P6SM BKN030
     FM080300 33030G40KT P6SM BKN025=



000
FTUS43 KOAX 072129 AAB
TAFOFK
TAF AMD
KOFK 072129Z 0721/0818 31028G40KT P6SM BKN030
     FM080300 33030G40KT P6SM BKN025=



000
FTUS43 KOAX 071845 AAA
TAFOFK
TAF AMD
KOFK 071845Z 0719/0818 29028G40KT P6SM SCT120
     FM072000 32026G38KT P6SM BKN050
     FM080300 33030G40KT P6SM BKN025=



000
FTUS43 KOAX 071845 AAA
TAFOFK
TAF AMD
KOFK 071845Z 0719/0818 29028G40KT P6SM SCT120
     FM072000 32026G38KT P6SM BKN050
     FM080300 33030G40KT P6SM BKN025=



000
FTUS43 KOAX 071845 AAA
TAFOFK
TAF AMD
KOFK 071845Z 0719/0818 29028G40KT P6SM SCT120
     FM072000 32026G38KT P6SM BKN050
     FM080300 33030G40KT P6SM BKN025=



000
FTUS43 KOAX 071744
TAFOMA
TAF
KOMA 071744Z 0718/0818 30019G25KT P6SM SCT120
     FM072100 32020G29KT P6SM BKN060
     FM080600 33025G35KT P6SM BKN025=



000
FTUS43 KOAX 071744
TAFOFK
TAF
KOFK 071744Z 0718/0818 29020G28KT P6SM SCT120
     FM072000 32024G33KT P6SM BKN050
     FM080300 33030G40KT P6SM BKN025=



000
FTUS43 KOAX 071744
TAFLNK
TAF
KLNK 071744Z 0718/0818 29018G24KT P6SM SCT120
     FM072200 32018G28KT P6SM BKN060
     FM080800 33025G35KT P6SM BKN030=



000
FTUS43 KOAX 071744
TAFOFK
TAF
KOFK 071744Z 0718/0818 29020G28KT P6SM SCT120
     FM072000 32024G33KT P6SM BKN050
     FM080300 33030G40KT P6SM BKN025=



000
FTUS43 KOAX 071744
TAFLNK
TAF
KLNK 071744Z 0718/0818 29018G24KT P6SM SCT120
     FM072200 32018G28KT P6SM BKN060
     FM080800 33025G35KT P6SM BKN030=



000
FTUS43 KOAX 071744
TAFOMA
TAF
KOMA 071744Z 0718/0818 30019G25KT P6SM SCT120
     FM072100 32020G29KT P6SM BKN060
     FM080600 33025G35KT P6SM BKN025=



000
FTUS43 KOAX 071744
TAFOFK
TAF
KOFK 071744Z 0718/0818 29020G28KT P6SM SCT120
     FM072000 32024G33KT P6SM BKN050
     FM080300 33030G40KT P6SM BKN025=



000
FTUS43 KOAX 071744
TAFOMA
TAF
KOMA 071744Z 0718/0818 30019G25KT P6SM SCT120
     FM072100 32020G29KT P6SM BKN060
     FM080600 33025G35KT P6SM BKN025=



000
FTUS43 KOAX 071744
TAFLNK
TAF
KLNK 071744Z 0718/0818 29018G24KT P6SM SCT120
     FM072200 32018G28KT P6SM BKN060
     FM080800 33025G35KT P6SM BKN030=



000
FTUS43 KOAX 071344 AAA
TAFOFK
TAF AMD
KOFK 071344Z 0714/0812 30015KT P6SM SCT120
     FM071600 32024G33KT P6SM BKN060
     FM081000 33025G35KT P6SM BKN025=



000
FTUS43 KOAX 071344 AAA
TAFOMA
TAF AMD
KOMA 071344Z 0714/0812 30014KT P6SM SCT120
     FM071600 32018G28KT P6SM BKN060
     FM081100 33022G32KT P6SM BKN025=



000
FTUS43 KOAX 071344 AAA
TAFLNK
TAF AMD
KLNK 071344Z 0714/0812 29012KT P6SM SCT120
     FM071600 32018G28KT P6SM BKN060=



000
FTUS43 KOAX 071123
TAFLNK
TAF
KLNK 071123Z 0712/0812 31012KT P6SM SCT120
     FM071600 32018G28KT P6SM BKN060=



000
FTUS43 KOAX 071123
TAFOFK
TAF
KOFK 071123Z 0712/0812 31015KT P6SM SCT120
     FM071600 32024G33KT P6SM BKN060
     FM081000 33025G35KT P6SM BKN025=



000
FTUS43 KOAX 071123
TAFOMA
TAF
KOMA 071123Z 0712/0812 31014KT P6SM SCT120
     FM071600 32018G28KT P6SM BKN060
     FM081100 33022G32KT P6SM BKN025=



000
FTUS43 KOAX 071123
TAFLNK
TAF
KLNK 071123Z 0712/0812 31012KT P6SM SCT120
     FM071600 32018G28KT P6SM BKN060=



000
FTUS43 KOAX 071123
TAFOMA
TAF
KOMA 071123Z 0712/0812 31014KT P6SM SCT120
     FM071600 32018G28KT P6SM BKN060
     FM081100 33022G32KT P6SM BKN025=



000
FTUS43 KOAX 071123
TAFOFK
TAF
KOFK 071123Z 0712/0812 31015KT P6SM SCT120
     FM071600 32024G33KT P6SM BKN060
     FM081000 33025G35KT P6SM BKN025=



000
FTUS43 KOAX 070520
TAFLNK
TAF
KLNK 070520Z 0706/0806 24011KT P6SM BKN150
     FM071500 29014G22KT P6SM BKN120
     FM071900 31020G30KT P6SM BKN100=



000
FTUS43 KOAX 070520
TAFOFK
TAF
KOFK 070520Z 0706/0806 28011KT P6SM BKN150
     FM071600 29020G30KT P6SM BKN080
     FM072100 31025G35KT P6SM OVC050=



000
FTUS43 KOAX 070520
TAFOMA
TAF
KOMA 070520Z 0706/0806 20011KT P6SM BKN150
     FM071600 29014G21KT P6SM BKN120
     FM072100 32020G30KT P6SM OVC060=



000
FTUS43 KOAX 062320
TAFOFK
TAF
KOFK 062320Z 0700/0724 22014KT P6SM BKN150
     FM070400 28014KT P6SM BKN120
     FM071600 29020G30KT P6SM BKN100
     FM072000 31025G35KT P6SM BKN080=



000
FTUS43 KOAX 062320
TAFLNK
TAF
KLNK 062320Z 0700/0724 21012KT P6SM BKN150
     FM070600 28014KT P6SM BKN120
     FM071700 30020G30KT P6SM BKN100=



000
FTUS43 KOAX 062320
TAFOMA
TAF
KOMA 062320Z 0700/0724 19014KT P6SM BKN150
     FM070500 29014KT P6SM BKN120
     FM071800 30020G30KT P6SM BKN100=



000
FTUS43 KOAX 062320
TAFOFK
TAF
KOFK 062320Z 0700/0724 22014KT P6SM BKN150
     FM070400 28014KT P6SM BKN120
     FM071600 29020G30KT P6SM BKN100
     FM072000 31025G35KT P6SM BKN080=



000
FTUS43 KOAX 062320
TAFLNK
TAF
KLNK 062320Z 0700/0724 21012KT P6SM BKN150
     FM070600 28014KT P6SM BKN120
     FM071700 30020G30KT P6SM BKN100=



000
FTUS43 KOAX 062320
TAFOMA
TAF
KOMA 062320Z 0700/0724 19014KT P6SM BKN150
     FM070500 29014KT P6SM BKN120
     FM071800 30020G30KT P6SM BKN100=



000
FTUS43 KOAX 061734
TAFOFK
TAF
KOFK 061734Z 0618/0718 21012KT P6SM FEW250
     FM070300 28012G20KT P6SM SCT150
     FM071600 29020G30KT P6SM BKN100=



000
FTUS43 KOAX 061734
TAFLNK
TAF
KLNK 061734Z 0618/0718 21011KT P6SM FEW250
     FM070400 28012G20KT P6SM SCT150
     FM071600 29020G30KT P6SM BKN150=



000
FTUS43 KOAX 061734
TAFOMA
TAF
KOMA 061734Z 0618/0718 21011KT P6SM FEW250
     FM070500 28012G20KT P6SM SCT150
     FM071600 29020G30KT P6SM BKN150=



000
FTUS43 KOAX 061513 AAC
TAFOMA
TAF AMD
KOMA 061513Z 0615/0712 17008KT 1/2SM FZFG SCT010
     FM061700 22006KT P6SM SCT250=



000
FTUS43 KOAX 061513 AAC
TAFOMA
TAF AMD
KOMA 061513Z 0615/0712 17008KT 1/2SM FZFG SCT010
     FM061700 22006KT P6SM SCT250=



000
FTUS43 KOAX 061513 AAC
TAFOMA
TAF AMD
KOMA 061513Z 0615/0712 17008KT 1/2SM FZFG SCT010
     FM061700 22006KT P6SM SCT250=



000
FTUS43 KOAX 061356 AAB
TAFOMA
TAF AMD
KOMA 061356Z 0614/0712 VRB03KT 5SM BR SCT010
      TEMPO 0614/0615 1/2SM FG VV002
     FM061500 25006KT P6SM SCT250=



000
FTUS43 KOAX 061356 AAC
TAFLNK
TAF AMD
KLNK 061356Z 0614/0712 27008KT P6SM SCT250
      TEMPO 0614/0615 4SM BR=



000
FTUS43 KOAX 061356 AAB
TAFOFK
TAF AMD
KOFK 061356Z 0614/0712 28008KT P6SM SCT250
      TEMPO 0702/0706 5SM BR=



000
FTUS43 KOAX 061247 AAB
TAFLNK
TAF AMD
KLNK 061247Z 0613/0712 27008KT P6SM SCT250
      TEMPO 0613/0614 1SM BR VV002=



000
FTUS43 KOAX 061247 AAA
TAFOMA
TAF AMD
KOMA 061247Z 0613/0712 VRB03KT P6SM SCT010
      TEMPO 0613/0614 1/2SM FG VV002
     FM061500 25006KT P6SM SCT250=



000
FTUS43 KOAX 061247 AAA
TAFOFK
TAF AMD
KOFK 061247Z 0613/0712 VRB03KT P6SM SKC
      TEMPO 0613/0614 2SM BR
     FM061500 28008KT P6SM SCT250
      TEMPO 0702/0706 5SM BR=



000
FTUS43 KOAX 061247 AAA
TAFOMA
TAF AMD
KOMA 061247Z 0613/0712 VRB03KT P6SM SCT010
      TEMPO 0613/0614 1/2SM FG VV002
     FM061500 25006KT P6SM SCT250=



000
FTUS43 KOAX 061247 AAB
TAFLNK
TAF AMD
KLNK 061247Z 0613/0712 27008KT P6SM SCT250
      TEMPO 0613/0614 1SM BR VV002=



000
FTUS43 KOAX 061247 AAA
TAFOFK
TAF AMD
KOFK 061247Z 0613/0712 VRB03KT P6SM SKC
      TEMPO 0613/0614 2SM BR
     FM061500 28008KT P6SM SCT250
      TEMPO 0702/0706 5SM BR=



000
FTUS43 KOAX 061153 AAA
TAFLNK
TAF AMD
KLNK 061153Z 0612/0712 27008KT P6SM SCT250
      TEMPO 0612/0613 1SM BR VV001=



000
FTUS43 KOAX 061153 AAA
TAFLNK
TAF AMD
KLNK 061153Z 0612/0712 27008KT P6SM SCT250
      TEMPO 0612/0613 1SM BR VV001=



000
FTUS43 KOAX 061153 AAA
TAFLNK
TAF AMD
KLNK 061153Z 0612/0712 27008KT P6SM SCT250
      TEMPO 0612/0613 1SM BR VV001=



000
FTUS43 KOAX 061129
TAFOFK
TAF
KOFK 061129Z 0612/0712 27008KT P6SM SCT250
      TEMPO 0702/0706 5SM BR=



000
FTUS43 KOAX 061129
TAFOFK
TAF
KOFK 061129Z 0612/0712 27008KT P6SM SCT250
      TEMPO 0702/0706 5SM BR=



000
FTUS43 KOAX 061129
TAFOMA
TAF
KOMA 061129Z 0612/0712 30006KT P6SM OVC009
      TEMPO 0612/0613 1/2SM FG VV002
     FM061500 25006KT P6SM SCT250=



000
FTUS43 KOAX 061129
TAFLNK
TAF
KLNK 061129Z 0612/0712 27008KT P6SM SCT250
      TEMPO 0612/0613 5SM BR=



000
FTUS43 KOAX 061129
TAFOMA
TAF
KOMA 061129Z 0612/0712 30006KT P6SM OVC009
      TEMPO 0612/0613 1/2SM FG VV002
     FM061500 25006KT P6SM SCT250=



000
FTUS43 KOAX 061129
TAFLNK
TAF
KLNK 061129Z 0612/0712 27008KT P6SM SCT250
      TEMPO 0612/0613 5SM BR=



000
FTUS43 KOAX 061129
TAFOFK
TAF
KOFK 061129Z 0612/0712 27008KT P6SM SCT250
      TEMPO 0702/0706 5SM BR=



000
FTUS43 KOAX 061129
TAFOMA
TAF
KOMA 061129Z 0612/0712 30006KT P6SM OVC009
      TEMPO 0612/0613 1/2SM FG VV002
     FM061500 25006KT P6SM SCT250=



000
FTUS43 KOAX 061129
TAFLNK
TAF
KLNK 061129Z 0612/0712 27008KT P6SM SCT250
      TEMPO 0612/0613 5SM BR=



000
FTUS43 KOAX 061043 AAB
TAFLNK
TAF AMD
KLNK 061043Z 0611/0706 30006KT P6SM SCT015
      TEMPO 0611/0612 5SM BR
     FM061600 22011KT P6SM SCT150=



000
FTUS43 KOAX 061043 AAB
TAFOMA
TAF AMD
KOMA 061043Z 0611/0706 30006KT P6SM OVC009
      TEMPO 0611/0613 1/2SM FG VV002
     FM061500 19009KT P6SM SCT250=



000
FTUS43 KOAX 061043 AAC
TAFOFK
TAF AMD
KOFK 061043Z 0611/0706 30006KT P6SM SCT250=



000
FTUS43 KOAX 060851 AAA
TAFOMA
TAF AMD
KOMA 060851Z 0609/0706 30006KT P6SM BKN015
     FM061000 30006KT P6SM SCT015 SCT025
      TEMPO 0610/0612 1SM BR
     FM061500 19009KT P6SM SCT250=



000
FTUS43 KOAX 060851 AAA
TAFLNK
TAF AMD
KLNK 060851Z 0609/0706 30006KT P6SM SCT015
      TEMPO 0609/0612 5SM BR
     FM061600 22011KT P6SM SCT150=



000
FTUS43 KOAX 060851 AAB
TAFOFK
TAF AMD
KOFK 060851Z 0609/0706 30006KT 1/2SM FZFG SKC
      TEMPO 0609/0611 3SM BR
     FM061100 30007KT P6SM SCT250=



000
FTUS43 KOAX 060851 AAB
TAFOFK
TAF AMD
KOFK 060851Z 0609/0706 30006KT 1/2SM FZFG SKC
      TEMPO 0609/0611 3SM BR
     FM061100 30007KT P6SM SCT250=



000
FTUS43 KOAX 060851 AAA
TAFLNK
TAF AMD
KLNK 060851Z 0609/0706 30006KT P6SM SCT015
      TEMPO 0609/0612 5SM BR
     FM061600 22011KT P6SM SCT150=



000
FTUS43 KOAX 060851 AAA
TAFOMA
TAF AMD
KOMA 060851Z 0609/0706 30006KT P6SM BKN015
     FM061000 30006KT P6SM SCT015 SCT025
      TEMPO 0610/0612 1SM BR
     FM061500 19009KT P6SM SCT250=



000
FTUS43 KOAX 060851 AAA
TAFLNK
TAF AMD
KLNK 060851Z 0609/0706 30006KT P6SM SCT015
      TEMPO 0609/0612 5SM BR
     FM061600 22011KT P6SM SCT150=



000
FTUS43 KOAX 060851 AAA
TAFOMA
TAF AMD
KOMA 060851Z 0609/0706 30006KT P6SM BKN015
     FM061000 30006KT P6SM SCT015 SCT025
      TEMPO 0610/0612 1SM BR
     FM061500 19009KT P6SM SCT250=



000
FTUS43 KOAX 060851 AAB
TAFOFK
TAF AMD
KOFK 060851Z 0609/0706 30006KT 1/2SM FZFG SKC
      TEMPO 0609/0611 3SM BR
     FM061100 30007KT P6SM SCT250=



000
FTUS43 KOAX 060650 AAA
TAFOFK
TAF AMD
KOFK 060650Z 0607/0706 27006KT 1SM BR SKC
      TEMPO 0607/0609 1/4SM FG VV002
     FM061600 22011KT P6SM SCT150=



000
FTUS43 KOAX 060650 AAA
TAFOFK
TAF AMD
KOFK 060650Z 0607/0706 27006KT 1SM BR SKC
      TEMPO 0607/0609 1/4SM FG VV002
     FM061600 22011KT P6SM SCT150=



000
FTUS43 KOAX 060650 AAA
TAFOFK
TAF AMD
KOFK 060650Z 0607/0706 27006KT 1SM BR SKC
      TEMPO 0607/0609 1/4SM FG VV002
     FM061600 22011KT P6SM SCT150=



    US Dept of Commerce
    National Oceanic and Atmospheric Administration
    National Weather Service
    1325 East West Highway
    Silver Spring, MD 20910
    Page Author: NWS Internet Services Team
Disclaimer
Information Quality
Credits
Glossary
Privacy Policy
Freedom of Information Act (FOIA)
About Us
Career Opportunities